sensor_id;sensor_type;location;lat;lon;timestamp;P1;durP1;ratioP1;P2;durP2;ratioP2
79122;SDS011;68526;44.600;26.032;2023-04-15T00:00:12;9.60;;;7.80;;
79122;SDS011;68526;44.600;26.032;2023-04-15T00:00:29;9.20;;;7.80;;
79122;SDS011;68526;44.600;26.032;2023-04-15T00:00:48;9.32;;;8.10;;
79122;SDS011;68526;44.600;26.032;2023-04-15T00:01:05;8.90;;;8.00;;
79122;SDS011;68526;44.600;26.032;2023-04-15T00:01:21;9.38;;;8.02;;
79122;SDS011;68526;44.600;26.032;2023-04-15T00:01:37;10.57;;;8.40;;
79122;SDS011;68526;44.600;26.032;2023-04-15T00:01:53;11.13;;;8.60;;
79122;SDS011;68526;44.600;26.032;2023-04-15T00:02:15;10.95;;;8.68;;
79122;SDS011;68526;44.600;26.032;2023-04-15T00:02:33;10.50;;;8.77;;
79122;SDS011;68526;44.600;26.032;2023-04-15T00:02:50;10.63;;;8.80;;
79122;SDS011;68526;44.600;26.032;2023-04-15T00:03:07;11.32;;;9.13;;
79122;SDS011;68526;44.600;26.032;2023-04-15T00:03:22;12.18;;;9.30;;
79122;SDS011;68526;44.600;26.032;2023-04-15T00:03:38;10.87;;;8.90;;
79122;SDS011;68526;44.600;26.032;2023-04-15T00:03:56;11.93;;;9.18;;
79122;SDS011;68526;44.600;26.032;2023-04-15T00:04:12;11.68;;;9.48;;
79122;SDS011;68526;44.600;26.032;2023-04-15T00:04:28;11.02;;;9.07;;
79122;SDS011;68526;44.600;26.032;2023-04-15T00:04:45;11.27;;;8.68;;
79122;SDS011;68526;44.600;26.032;2023-04-15T00:05:01;10.85;;;8.50;;
79122;SDS011;68526;44.600;26.032;2023-04-15T00:05:18;11.02;;;8.93;;
79122;SDS011;68526;44.600;26.032;2023-04-15T00:05:34;10.45;;;8.98;;
79122;SDS011;68526;44.600;26.032;2023-04-15T00:05:50;10.02;;;8.70;;
79122;SDS011;68526;44.600;26.032;2023-04-15T00:06:06;10.40;;;8.50;;
79122;SDS011;68526;44.600;26.032;2023-04-15T00:06:22;9.80;;;8.05;;
79122;SDS011;68526;44.600;26.032;2023-04-15T00:06:38;9.82;;;8.30;;
79122;SDS011;68526;44.600;26.032;2023-04-15T00:06:55;10.82;;;8.52;;
79122;SDS011;68526;44.600;26.032;2023-04-15T00:07:11;11.37;;;8.63;;
79122;SDS011;68526;44.600;26.032;2023-04-15T00:07:27;11.00;;;9.25;;
79122;SDS011;68526;44.600;26.032;2023-04-15T00:07:43;11.68;;;9.98;;
79122;SDS011;68526;44.600;26.032;2023-04-15T00:08:01;11.18;;;9.57;;
79122;SDS011;68526;44.600;26.032;2023-04-15T00:08:18;10.20;;;9.07;;
79122;SDS011;68526;44.600;26.032;2023-04-15T00:08:34;10.48;;;9.38;;
79122;SDS011;68526;44.600;26.032;2023-04-15T00:08:50;10.73;;;9.63;;
79122;SDS011;68526;44.600;26.032;2023-04-15T00:09:06;11.05;;;9.85;;
79122;SDS011;68526;44.600;26.032;2023-04-15T00:09:22;12.60;;;10.37;;
79122;SDS011;68526;44.600;26.032;2023-04-15T00:09:38;12.05;;;10.38;;
79122;SDS011;68526;44.600;26.032;2023-04-15T00:09:54;11.68;;;9.98;;
79122;SDS011;68526;44.600;26.032;2023-04-15T00:10:11;11.65;;;9.48;;
79122;SDS011;68526;44.600;26.032;2023-04-15T00:10:28;11.18;;;9.40;;
79122;SDS011;68526;44.600;26.032;2023-04-15T00:10:44;12.53;;;9.87;;
79122;SDS011;68526;44.600;26.032;2023-04-15T00:11:00;12.68;;;10.15;;
79122;SDS011;68526;44.600;26.032;2023-04-15T00:11:19;13.70;;;10.38;;
79122;SDS011;68526;44.600;26.032;2023-04-15T00:11:35;14.30;;;10.50;;
79122;SDS011;68526;44.600;26.032;2023-04-15T00:11:51;13.50;;;10.32;;
79122;SDS011;68526;44.600;26.032;2023-04-15T00:12:07;12.70;;;10.43;;
79122;SDS011;68526;44.600;26.032;2023-04-15T00:12:23;11.90;;;10.45;;
79122;SDS011;68526;44.600;26.032;2023-04-15T00:12:40;12.95;;;10.88;;
79122;SDS011;68526;44.600;26.032;2023-04-15T00:12:56;14.30;;;11.00;;
79122;SDS011;68526;44.600;26.032;2023-04-15T00:13:12;12.68;;;10.68;;
79122;SDS011;68526;44.600;26.032;2023-04-15T00:13:29;12.15;;;10.70;;
79122;SDS011;68526;44.600;26.032;2023-04-15T00:13:45;13.32;;;10.93;;
79122;SDS011;68526;44.600;26.032;2023-04-15T00:14:01;11.87;;;10.47;;
79122;SDS011;68526;44.600;26.032;2023-04-15T00:14:16;11.27;;;10.07;;
79122;SDS011;68526;44.600;26.032;2023-04-15T00:14:33;12.05;;;10.65;;
79122;SDS011;68526;44.600;26.032;2023-04-15T00:14:50;12.45;;;11.07;;
79122;SDS011;68526;44.600;26.032;2023-04-15T00:15:08;13.23;;;11.57;;
79122;SDS011;68526;44.600;26.032;2023-04-15T00:15:24;13.68;;;11.48;;
79122;SDS011;68526;44.600;26.032;2023-04-15T00:15:41;13.48;;;11.50;;
79122;SDS011;68526;44.600;26.032;2023-04-15T00:15:57;13.13;;;11.73;;
79122;SDS011;68526;44.600;26.032;2023-04-15T00:16:14;13.80;;;11.70;;
79122;SDS011;68526;44.600;26.032;2023-04-15T00:16:29;15.43;;;11.93;;
79122;SDS011;68526;44.600;26.032;2023-04-15T00:16:45;14.20;;;12.10;;
79122;SDS011;68526;44.600;26.032;2023-04-15T00:17:01;13.07;;;11.68;;
79122;SDS011;68526;44.600;26.032;2023-04-15T00:17:18;13.80;;;11.88;;
79122;SDS011;68526;44.600;26.032;2023-04-15T00:17:35;14.50;;;12.23;;
79122;SDS011;68526;44.600;26.032;2023-04-15T00:17:53;13.57;;;12.18;;
79122;SDS011;68526;44.600;26.032;2023-04-15T00:18:09;13.65;;;11.93;;
79122;SDS011;68526;44.600;26.032;2023-04-15T00:18:25;13.80;;;12.18;;
79122;SDS011;68526;44.600;26.032;2023-04-15T00:18:41;14.02;;;12.55;;
79122;SDS011;68526;44.600;26.032;2023-04-15T00:18:57;14.05;;;12.15;;
79122;SDS011;68526;44.600;26.032;2023-04-15T00:19:13;13.95;;;11.82;;
79122;SDS011;68526;44.600;26.032;2023-04-15T00:19:29;14.10;;;12.30;;
79122;SDS011;68526;44.600;26.032;2023-04-15T00:19:45;14.02;;;12.52;;
79122;SDS011;68526;44.600;26.032;2023-04-15T00:20:01;13.57;;;12.18;;
79122;SDS011;68526;44.600;26.032;2023-04-15T00:20:20;14.23;;;12.45;;
79122;SDS011;68526;44.600;26.032;2023-04-15T00:20:37;15.13;;;12.60;;
79122;SDS011;68526;44.600;26.032;2023-04-15T00:20:53;13.80;;;12.07;;
79122;SDS011;68526;44.600;26.032;2023-04-15T00:21:09;13.95;;;12.35;;
79122;SDS011;68526;44.600;26.032;2023-04-15T00:21:25;14.00;;;12.30;;
79122;SDS011;68526;44.600;26.032;2023-04-15T00:21:43;13.35;;;11.95;;
79122;SDS011;68526;44.600;26.032;2023-04-15T00:21:59;13.80;;;12.40;;
79122;SDS011;68526;44.600;26.032;2023-04-15T00:22:15;14.25;;;12.75;;
79122;SDS011;68526;44.600;26.032;2023-04-15T00:22:32;14.27;;;12.75;;
79122;SDS011;68526;44.600;26.032;2023-04-15T00:22:48;13.93;;;12.43;;
79122;SDS011;68526;44.600;26.032;2023-04-15T00:23:04;14.18;;;12.07;;
79122;SDS011;68526;44.600;26.032;2023-04-15T00:23:19;14.27;;;12.27;;
79122;SDS011;68526;44.600;26.032;2023-04-15T00:23:37;13.98;;;12.48;;
79122;SDS011;68526;44.600;26.032;2023-04-15T00:23:52;15.07;;;13.43;;
79122;SDS011;68526;44.600;26.032;2023-04-15T00:24:08;15.77;;;14.02;;
79122;SDS011;68526;44.600;26.032;2023-04-15T00:24:24;15.32;;;13.70;;
79122;SDS011;68526;44.600;26.032;2023-04-15T00:24:40;15.15;;;13.48;;
79122;SDS011;68526;44.600;26.032;2023-04-15T00:24:57;15.80;;;13.70;;
79122;SDS011;68526;44.600;26.032;2023-04-15T00:25:13;15.45;;;13.70;;
79122;SDS011;68526;44.600;26.032;2023-04-15T00:25:29;15.95;;;13.63;;
79122;SDS011;68526;44.600;26.032;2023-04-15T00:25:45;15.63;;;13.02;;
79122;SDS011;68526;44.600;26.032;2023-04-15T00:26:01;14.35;;;12.80;;
79122;SDS011;68526;44.600;26.032;2023-04-15T00:26:17;14.65;;;13.05;;
79122;SDS011;68526;44.600;26.032;2023-04-15T00:26:33;16.10;;;13.50;;
79122;SDS011;68526;44.600;26.032;2023-04-15T00:26:50;15.90;;;13.30;;
79122;SDS011;68526;44.600;26.032;2023-04-15T00:27:06;14.73;;;13.05;;
79122;SDS011;68526;44.600;26.032;2023-04-15T00:27:22;14.32;;;12.65;;
79122;SDS011;68526;44.600;26.032;2023-04-15T00:27:38;13.65;;;12.00;;
79122;SDS011;68526;44.600;26.032;2023-04-15T00:27:55;13.27;;;11.85;;
79122;SDS011;68526;44.600;26.032;2023-04-15T00:28:12;14.80;;;11.88;;
79122;SDS011;68526;44.600;26.032;2023-04-15T00:28:28;14.40;;;11.68;;
79122;SDS011;68526;44.600;26.032;2023-04-15T00:28:45;13.30;;;11.23;;
79122;SDS011;68526;44.600;26.032;2023-04-15T00:29:01;13.30;;;10.90;;
79122;SDS011;68526;44.600;26.032;2023-04-15T00:29:16;13.95;;;11.32;;
79122;SDS011;68526;44.600;26.032;2023-04-15T00:29:32;14.50;;;11.70;;
79122;SDS011;68526;44.600;26.032;2023-04-15T00:29:49;13.63;;;11.57;;
79122;SDS011;68526;44.600;26.032;2023-04-15T00:30:06;12.63;;;10.88;;
79122;SDS011;68526;44.600;26.032;2023-04-15T00:30:24;11.93;;;10.20;;
79122;SDS011;68526;44.600;26.032;2023-04-15T00:30:40;11.25;;;9.75;;
79122;SDS011;68526;44.600;26.032;2023-04-15T00:30:56;11.20;;;9.93;;
79122;SDS011;68526;44.600;26.032;2023-04-15T00:31:12;11.23;;;10.02;;
79122;SDS011;68526;44.600;26.032;2023-04-15T00:31:29;11.45;;;10.10;;
79122;SDS011;68526;44.600;26.032;2023-04-15T00:31:45;11.13;;;9.82;;
79122;SDS011;68526;44.600;26.032;2023-04-15T00:32:01;10.50;;;9.32;;
79122;SDS011;68526;44.600;26.032;2023-04-15T00:32:17;10.50;;;9.33;;
79122;SDS011;68526;44.600;26.032;2023-04-15T00:32:33;11.18;;;9.32;;
79122;SDS011;68526;44.600;26.032;2023-04-15T00:32:50;10.50;;;9.02;;
79122;SDS011;68526;44.600;26.032;2023-04-15T00:33:05;10.55;;;8.85;;
79122;SDS011;68526;44.600;26.032;2023-04-15T00:33:22;10.88;;;8.80;;
79122;SDS011;68526;44.600;26.032;2023-04-15T00:33:37;10.75;;;8.63;;
79122;SDS011;68526;44.600;26.032;2023-04-15T00:33:54;10.70;;;8.63;;
79122;SDS011;68526;44.600;26.032;2023-04-15T00:34:10;10.38;;;8.40;;
79122;SDS011;68526;44.600;26.032;2023-04-15T00:34:26;11.43;;;8.48;;
79122;SDS011;68526;44.600;26.032;2023-04-15T00:34:43;11.35;;;8.82;;
79122;SDS011;68526;44.600;26.032;2023-04-15T00:34:58;10.63;;;8.50;;
79122;SDS011;68526;44.600;26.032;2023-04-15T00:35:14;10.05;;;8.00;;
79122;SDS011;68526;44.600;26.032;2023-04-15T00:35:30;9.75;;;8.48;;
79122;SDS011;68526;44.600;26.032;2023-04-15T00:35:47;10.48;;;8.82;;
79122;SDS011;68526;44.600;26.032;2023-04-15T00:36:03;10.07;;;8.27;;
79122;SDS011;68526;44.600;26.032;2023-04-15T00:36:20;10.70;;;8.40;;
79122;SDS011;68526;44.600;26.032;2023-04-15T00:36:37;11.20;;;8.60;;
79122;SDS011;68526;44.600;26.032;2023-04-15T00:36:53;10.25;;;8.30;;
79122;SDS011;68526;44.600;26.032;2023-04-15T00:37:10;11.00;;;8.40;;
79122;SDS011;68526;44.600;26.032;2023-04-15T00:37:26;10.15;;;8.10;;
79122;SDS011;68526;44.600;26.032;2023-04-15T00:37:41;10.63;;;8.10;;
79122;SDS011;68526;44.600;26.032;2023-04-15T00:37:57;10.60;;;7.90;;
79122;SDS011;68526;44.600;26.032;2023-04-15T00:38:13;10.13;;;7.57;;
79122;SDS011;68526;44.600;26.032;2023-04-15T00:38:29;9.33;;;7.83;;
79122;SDS011;68526;44.600;26.032;2023-04-15T00:38:46;9.77;;;7.80;;
79122;SDS011;68526;44.600;26.032;2023-04-15T00:39:02;10.57;;;7.63;;
79122;SDS011;68526;44.600;26.032;2023-04-15T00:39:19;10.57;;;7.88;;
79122;SDS011;68526;44.600;26.032;2023-04-15T00:39:35;9.77;;;7.78;;
79122;SDS011;68526;44.600;26.032;2023-04-15T00:39:51;8.67;;;7.70;;
79122;SDS011;68526;44.600;26.032;2023-04-15T00:40:09;8.80;;;7.80;;
79122;SDS011;68526;44.600;26.032;2023-04-15T00:40:27;9.90;;;7.60;;
79122;SDS011;68526;44.600;26.032;2023-04-15T00:40:43;9.63;;;7.47;;
79122;SDS011;68526;44.600;26.032;2023-04-15T00:40:59;10.52;;;8.05;;
79122;SDS011;68526;44.600;26.032;2023-04-15T00:41:16;10.60;;;8.30;;
79122;SDS011;68526;44.600;26.032;2023-04-15T00:41:33;9.13;;;8.02;;
79122;SDS011;68526;44.600;26.032;2023-04-15T00:41:53;10.43;;;8.45;;
79122;SDS011;68526;44.600;26.032;2023-04-15T00:42:09;10.70;;;8.68;;
79122;SDS011;68526;44.600;26.032;2023-04-15T00:42:26;10.57;;;8.52;;
79122;SDS011;68526;44.600;26.032;2023-04-15T00:42:42;12.18;;;8.40;;
79122;SDS011;68526;44.600;26.032;2023-04-15T00:42:59;11.45;;;8.50;;
79122;SDS011;68526;44.600;26.032;2023-04-15T00:43:15;9.50;;;8.40;;
79122;SDS011;68526;44.600;26.032;2023-04-15T00:43:31;9.27;;;8.33;;
79122;SDS011;68526;44.600;26.032;2023-04-15T00:43:47;10.07;;;8.55;;
79122;SDS011;68526;44.600;26.032;2023-04-15T00:44:03;10.90;;;8.68;;
79122;SDS011;68526;44.600;26.032;2023-04-15T00:44:20;9.90;;;8.40;;
79122;SDS011;68526;44.600;26.032;2023-04-15T00:44:37;9.03;;;7.97;;
79122;SDS011;68526;44.600;26.032;2023-04-15T00:44:53;10.27;;;8.23;;
79122;SDS011;68526;44.600;26.032;2023-04-15T00:45:10;10.05;;;8.23;;
79122;SDS011;68526;44.600;26.032;2023-04-15T00:45:27;9.45;;;8.45;;
79122;SDS011;68526;44.600;26.032;2023-04-15T00:45:43;9.45;;;8.30;;
79122;SDS011;68526;44.600;26.032;2023-04-15T00:45:59;10.55;;;8.20;;
79122;SDS011;68526;44.600;26.032;2023-04-15T00:46:18;10.32;;;8.05;;
79122;SDS011;68526;44.600;26.032;2023-04-15T00:46:35;9.07;;;7.88;;
79122;SDS011;68526;44.600;26.032;2023-04-15T00:46:52;9.55;;;8.27;;
79122;SDS011;68526;44.600;26.032;2023-04-15T00:47:08;10.00;;;8.35;;
79122;SDS011;68526;44.600;26.032;2023-04-15T00:47:25;9.88;;;8.50;;
79122;SDS011;68526;44.600;26.032;2023-04-15T00:47:43;9.55;;;8.25;;
79122;SDS011;68526;44.600;26.032;2023-04-15T00:48:00;9.48;;;7.85;;
79122;SDS011;68526;44.600;26.032;2023-04-15T00:48:17;9.05;;;8.05;;
79122;SDS011;68526;44.600;26.032;2023-04-15T00:48:33;9.13;;;8.23;;
79122;SDS011;68526;44.600;26.032;2023-04-15T00:48:49;9.13;;;7.88;;
79122;SDS011;68526;44.600;26.032;2023-04-15T00:49:06;9.05;;;7.53;;
79122;SDS011;68526;44.600;26.032;2023-04-15T00:49:23;9.80;;;7.75;;
79122;SDS011;68526;44.600;26.032;2023-04-15T00:49:40;10.75;;;7.90;;
79122;SDS011;68526;44.600;26.032;2023-04-15T00:49:56;9.77;;;7.55;;
79122;SDS011;68526;44.600;26.032;2023-04-15T00:50:12;8.77;;;7.30;;
79122;SDS011;68526;44.600;26.032;2023-04-15T00:50:28;8.02;;;7.00;;
79122;SDS011;68526;44.600;26.032;2023-04-15T00:50:44;9.32;;;7.40;;
79122;SDS011;68526;44.600;26.032;2023-04-15T00:50:59;9.70;;;7.70;;
79122;SDS011;68526;44.600;26.032;2023-04-15T00:51:16;8.50;;;7.60;;
79122;SDS011;68526;44.600;26.032;2023-04-15T00:51:32;8.47;;;7.50;;
79122;SDS011;68526;44.600;26.032;2023-04-15T00:51:50;9.43;;;7.30;;
79122;SDS011;68526;44.600;26.032;2023-04-15T00:52:06;8.73;;;7.27;;
79122;SDS011;68526;44.600;26.032;2023-04-15T00:52:23;9.20;;;7.18;;
79122;SDS011;68526;44.600;26.032;2023-04-15T00:52:39;9.05;;;6.95;;
79122;SDS011;68526;44.600;26.032;2023-04-15T00:52:56;8.40;;;6.60;;
79122;SDS011;68526;44.600;26.032;2023-04-15T00:53:12;8.60;;;6.60;;
79122;SDS011;68526;44.600;26.032;2023-04-15T00:53:27;8.65;;;6.70;;
79122;SDS011;68526;44.600;26.032;2023-04-15T00:53:43;8.18;;;6.85;;
79122;SDS011;68526;44.600;26.032;2023-04-15T00:53:59;7.75;;;6.75;;
79122;SDS011;68526;44.600;26.032;2023-04-15T00:54:15;9.10;;;6.60;;
79122;SDS011;68526;44.600;26.032;2023-04-15T00:54:32;9.15;;;6.80;;
79122;SDS011;68526;44.600;26.032;2023-04-15T00:54:48;9.63;;;6.80;;
79122;SDS011;68526;44.600;26.032;2023-04-15T00:55:05;10.20;;;6.65;;
79122;SDS011;68526;44.600;26.032;2023-04-15T00:55:22;8.38;;;6.45;;
79122;SDS011;68526;44.600;26.032;2023-04-15T00:55:38;8.03;;;6.40;;
79122;SDS011;68526;44.600;26.032;2023-04-15T00:55:54;7.50;;;6.30;;
79122;SDS011;68526;44.600;26.032;2023-04-15T00:56:11;9.43;;;6.82;;
79122;SDS011;68526;44.600;26.032;2023-04-15T00:56:28;9.95;;;7.18;;
79122;SDS011;68526;44.600;26.032;2023-04-15T00:56:45;8.43;;;6.65;;
79122;SDS011;68526;44.600;26.032;2023-04-15T00:57:01;8.38;;;6.10;;
79122;SDS011;68526;44.600;26.032;2023-04-15T00:57:19;9.00;;;6.47;;
79122;SDS011;68526;44.600;26.032;2023-04-15T00:57:36;9.00;;;6.70;;
79122;SDS011;68526;44.600;26.032;2023-04-15T00:57:54;9.02;;;6.40;;
79122;SDS011;68526;44.600;26.032;2023-04-15T00:58:11;8.30;;;6.43;;
79122;SDS011;68526;44.600;26.032;2023-04-15T00:58:27;7.85;;;6.53;;
79122;SDS011;68526;44.600;26.032;2023-04-15T00:58:43;8.18;;;6.50;;
79122;SDS011;68526;44.600;26.032;2023-04-15T00:59:00;8.77;;;6.60;;
79122;SDS011;68526;44.600;26.032;2023-04-15T00:59:16;10.25;;;6.40;;
79122;SDS011;68526;44.600;26.032;2023-04-15T00:59:33;9.95;;;6.50;;
79122;SDS011;68526;44.600;26.032;2023-04-15T00:59:49;9.10;;;6.80;;
79122;SDS011;68526;44.600;26.032;2023-04-15T01:00:07;8.73;;;6.47;;
79122;SDS011;68526;44.600;26.032;2023-04-15T01:00:27;8.43;;;6.20;;
79122;SDS011;68526;44.600;26.032;2023-04-15T01:00:44;8.75;;;6.15;;
79122;SDS011;68526;44.600;26.032;2023-04-15T01:01:00;8.57;;;6.27;;
79122;SDS011;68526;44.600;26.032;2023-04-15T01:01:18;7.90;;;6.30;;
79122;SDS011;68526;44.600;26.032;2023-04-15T01:01:36;6.88;;;6.10;;
79122;SDS011;68526;44.600;26.032;2023-04-15T01:01:52;7.88;;;6.30;;
79122;SDS011;68526;44.600;26.032;2023-04-15T01:02:09;9.57;;;6.45;;
79122;SDS011;68526;44.600;26.032;2023-04-15T01:02:25;8.45;;;6.40;;
79122;SDS011;68526;44.600;26.032;2023-04-15T01:02:41;7.90;;;6.30;;
79122;SDS011;68526;44.600;26.032;2023-04-15T01:02:57;8.27;;;6.23;;
79122;SDS011;68526;44.600;26.032;2023-04-15T01:03:13;8.30;;;6.00;;
79122;SDS011;68526;44.600;26.032;2023-04-15T01:03:30;8.45;;;6.18;;
79122;SDS011;68526;44.600;26.032;2023-04-15T01:03:46;7.70;;;6.22;;
79122;SDS011;68526;44.600;26.032;2023-04-15T01:04:03;7.90;;;6.38;;
79122;SDS011;68526;44.600;26.032;2023-04-15T01:04:19;9.02;;;6.65;;
79122;SDS011;68526;44.600;26.032;2023-04-15T01:04:35;8.93;;;6.55;;
79122;SDS011;68526;44.600;26.032;2023-04-15T01:04:52;7.60;;;6.43;;
79122;SDS011;68526;44.600;26.032;2023-04-15T01:05:08;7.32;;;6.32;;
79122;SDS011;68526;44.600;26.032;2023-04-15T01:05:24;8.17;;;6.17;;
79122;SDS011;68526;44.600;26.032;2023-04-15T01:05:41;8.25;;;6.00;;
79122;SDS011;68526;44.600;26.032;2023-04-15T01:05:56;7.60;;;6.37;;
79122;SDS011;68526;44.600;26.032;2023-04-15T01:06:13;8.43;;;6.65;;
79122;SDS011;68526;44.600;26.032;2023-04-15T01:06:30;8.43;;;6.32;;
79122;SDS011;68526;44.600;26.032;2023-04-15T01:06:46;8.48;;;6.57;;
79122;SDS011;68526;44.600;26.032;2023-04-15T01:07:02;11.60;;;6.70;;
79122;SDS011;68526;44.600;26.032;2023-04-15T01:07:18;10.63;;;6.72;;
79122;SDS011;68526;44.600;26.032;2023-04-15T01:07:34;7.63;;;6.47;;
79122;SDS011;68526;44.600;26.032;2023-04-15T01:07:50;7.70;;;6.25;;
79122;SDS011;68526;44.600;26.032;2023-04-15T01:08:07;7.25;;;6.10;;
79122;SDS011;68526;44.600;26.032;2023-04-15T01:08:25;8.55;;;6.03;;
79122;SDS011;68526;44.600;26.032;2023-04-15T01:08:41;8.00;;;6.32;;
79122;SDS011;68526;44.600;26.032;2023-04-15T01:08:57;6.88;;;6.18;;
79122;SDS011;68526;44.600;26.032;2023-04-15T01:09:14;8.10;;;6.72;;
79122;SDS011;68526;44.600;26.032;2023-04-15T01:09:31;8.18;;;6.88;;
79122;SDS011;68526;44.600;26.032;2023-04-15T01:09:47;7.72;;;6.63;;
79122;SDS011;68526;44.600;26.032;2023-04-15T01:10:03;7.07;;;6.18;;
79122;SDS011;68526;44.600;26.032;2023-04-15T01:10:20;7.57;;;6.15;;
79122;SDS011;68526;44.600;26.032;2023-04-15T01:10:36;7.55;;;6.20;;
79122;SDS011;68526;44.600;26.032;2023-04-15T01:10:52;7.35;;;6.10;;
79122;SDS011;68526;44.600;26.032;2023-04-15T01:11:09;8.57;;;6.20;;
79122;SDS011;68526;44.600;26.032;2023-04-15T01:11:27;8.95;;;6.43;;
79122;SDS011;68526;44.600;26.032;2023-04-15T01:11:44;8.57;;;6.25;;
79122;SDS011;68526;44.600;26.032;2023-04-15T01:12:00;8.35;;;6.10;;
79122;SDS011;68526;44.600;26.032;2023-04-15T01:12:18;8.73;;;6.40;;
79122;SDS011;68526;44.600;26.032;2023-04-15T01:12:35;8.32;;;6.20;;
79122;SDS011;68526;44.600;26.032;2023-04-15T01:12:51;8.68;;;5.97;;
79122;SDS011;68526;44.600;26.032;2023-04-15T01:13:07;7.95;;;5.97;;
79122;SDS011;68526;44.600;26.032;2023-04-15T01:13:23;7.23;;;5.90;;
79122;SDS011;68526;44.600;26.032;2023-04-15T01:13:39;7.80;;;6.05;;
79122;SDS011;68526;44.600;26.032;2023-04-15T01:13:57;8.73;;;6.10;;
79122;SDS011;68526;44.600;26.032;2023-04-15T01:14:14;8.30;;;6.40;;
79122;SDS011;68526;44.600;26.032;2023-04-15T01:14:30;8.05;;;6.70;;
79122;SDS011;68526;44.600;26.032;2023-04-15T01:14:46;8.35;;;6.60;;
79122;SDS011;68526;44.600;26.032;2023-04-15T01:15:02;8.18;;;6.20;;
79122;SDS011;68526;44.600;26.032;2023-04-15T01:15:19;7.80;;;6.00;;
79122;SDS011;68526;44.600;26.032;2023-04-15T01:15:36;8.20;;;6.13;;
79122;SDS011;68526;44.600;26.032;2023-04-15T01:15:54;8.25;;;6.05;;
79122;SDS011;68526;44.600;26.032;2023-04-15T01:16:11;8.10;;;6.13;;
79122;SDS011;68526;44.600;26.032;2023-04-15T01:16:27;7.78;;;5.93;;
79122;SDS011;68526;44.600;26.032;2023-04-15T01:16:43;8.35;;;6.00;;
79122;SDS011;68526;44.600;26.032;2023-04-15T01:16:59;9.97;;;6.50;;
79122;SDS011;68526;44.600;26.032;2023-04-15T01:17:16;10.10;;;6.72;;
79122;SDS011;68526;44.600;26.032;2023-04-15T01:17:32;9.90;;;6.38;;
79122;SDS011;68526;44.600;26.032;2023-04-15T01:17:48;8.77;;;6.38;;
79122;SDS011;68526;44.600;26.032;2023-04-15T01:18:04;7.80;;;6.30;;
79122;SDS011;68526;44.600;26.032;2023-04-15T01:18:21;7.32;;;5.90;;
79122;SDS011;68526;44.600;26.032;2023-04-15T01:18:38;7.82;;;5.93;;
79122;SDS011;68526;44.600;26.032;2023-04-15T01:18:55;7.63;;;5.68;;
79122;SDS011;68526;44.600;26.032;2023-04-15T01:19:11;7.68;;;6.03;;
79122;SDS011;68526;44.600;26.032;2023-04-15T01:19:31;7.13;;;6.10;;
79122;SDS011;68526;44.600;26.032;2023-04-15T01:19:47;7.47;;;6.15;;
79122;SDS011;68526;44.600;26.032;2023-04-15T01:20:03;8.68;;;6.53;;
79122;SDS011;68526;44.600;26.032;2023-04-15T01:20:21;8.60;;;6.57;;
79122;SDS011;68526;44.600;26.032;2023-04-15T01:20:37;7.72;;;6.30;;
79122;SDS011;68526;44.600;26.032;2023-04-15T01:20:53;8.40;;;6.05;;
79122;SDS011;68526;44.600;26.032;2023-04-15T01:21:10;8.15;;;6.00;;
79122;SDS011;68526;44.600;26.032;2023-04-15T01:21:26;8.05;;;6.22;;
79122;SDS011;68526;44.600;26.032;2023-04-15T01:21:43;8.10;;;6.03;;
79122;SDS011;68526;44.600;26.032;2023-04-15T01:21:59;7.80;;;6.03;;
79122;SDS011;68526;44.600;26.032;2023-04-15T01:22:18;7.15;;;5.90;;
79122;SDS011;68526;44.600;26.032;2023-04-15T01:22:33;6.95;;;5.90;;
79122;SDS011;68526;44.600;26.032;2023-04-15T01:22:49;7.50;;;6.18;;
79122;SDS011;68526;44.600;26.032;2023-04-15T01:23:05;7.90;;;6.37;;
79122;SDS011;68526;44.600;26.032;2023-04-15T01:23:21;8.23;;;6.20;;
79122;SDS011;68526;44.600;26.032;2023-04-15T01:23:38;8.52;;;6.20;;
79122;SDS011;68526;44.600;26.032;2023-04-15T01:23:55;8.18;;;6.13;;
79122;SDS011;68526;44.600;26.032;2023-04-15T01:24:13;8.55;;;6.18;;
79122;SDS011;68526;44.600;26.032;2023-04-15T01:24:33;10.27;;;6.55;;
79122;SDS011;68526;44.600;26.032;2023-04-15T01:24:53;9.40;;;6.30;;
79122;SDS011;68526;44.600;26.032;2023-04-15T01:25:16;8.75;;;6.60;;
79122;SDS011;68526;44.600;26.032;2023-04-15T01:25:34;7.85;;;6.22;;
79122;SDS011;68526;44.600;26.032;2023-04-15T01:25:51;7.82;;;6.05;;
79122;SDS011;68526;44.600;26.032;2023-04-15T01:26:08;8.07;;;6.40;;
79122;SDS011;68526;44.600;26.032;2023-04-15T01:26:24;7.20;;;6.38;;
79122;SDS011;68526;44.600;26.032;2023-04-15T01:26:41;8.88;;;6.45;;
79122;SDS011;68526;44.600;26.032;2023-04-15T01:26:57;9.25;;;6.32;;
79122;SDS011;68526;44.600;26.032;2023-04-15T01:27:13;7.68;;;5.95;;
79122;SDS011;68526;44.600;26.032;2023-04-15T01:27:29;7.10;;;5.95;;
79122;SDS011;68526;44.600;26.032;2023-04-15T01:27:46;7.18;;;5.78;;
79122;SDS011;68526;44.600;26.032;2023-04-15T01:28:03;8.57;;;6.00;;
79122;SDS011;68526;44.600;26.032;2023-04-15T01:28:19;9.90;;;6.30;;
79122;SDS011;68526;44.600;26.032;2023-04-15T01:28:35;8.82;;;6.18;;
79122;SDS011;68526;44.600;26.032;2023-04-15T01:28:51;7.50;;;6.10;;
79122;SDS011;68526;44.600;26.032;2023-04-15T01:29:07;8.07;;;6.35;;
79122;SDS011;68526;44.600;26.032;2023-04-15T01:29:23;8.13;;;6.40;;
79122;SDS011;68526;44.600;26.032;2023-04-15T01:29:41;8.95;;;6.38;;
79122;SDS011;68526;44.600;26.032;2023-04-15T01:29:57;9.13;;;6.30;;
79122;SDS011;68526;44.600;26.032;2023-04-15T01:30:13;9.50;;;6.40;;
79122;SDS011;68526;44.600;26.032;2023-04-15T01:30:32;8.98;;;6.80;;
79122;SDS011;68526;44.600;26.032;2023-04-15T01:30:48;8.85;;;6.63;;
79122;SDS011;68526;44.600;26.032;2023-04-15T01:31:06;9.18;;;6.38;;
79122;SDS011;68526;44.600;26.032;2023-04-15T01:31:23;8.32;;;6.25;;
79122;SDS011;68526;44.600;26.032;2023-04-15T01:31:38;9.80;;;6.38;;
79122;SDS011;68526;44.600;26.032;2023-04-15T01:31:54;10.20;;;6.07;;
79122;SDS011;68526;44.600;26.032;2023-04-15T01:32:10;10.27;;;6.13;;
79122;SDS011;68526;44.600;26.032;2023-04-15T01:32:27;10.18;;;6.70;;
79122;SDS011;68526;44.600;26.032;2023-04-15T01:32:44;8.88;;;6.63;;
79122;SDS011;68526;44.600;26.032;2023-04-15T01:33:00;7.95;;;6.13;;
79122;SDS011;68526;44.600;26.032;2023-04-15T01:33:16;8.80;;;6.22;;
79122;SDS011;68526;44.600;26.032;2023-04-15T01:33:32;8.50;;;6.43;;
79122;SDS011;68526;44.600;26.032;2023-04-15T01:33:48;9.57;;;6.57;;
79122;SDS011;68526;44.600;26.032;2023-04-15T01:34:04;8.73;;;6.33;;
79122;SDS011;68526;44.600;26.032;2023-04-15T01:34:21;7.85;;;6.28;;
79122;SDS011;68526;44.600;26.032;2023-04-15T01:34:37;7.90;;;6.30;;
79122;SDS011;68526;44.600;26.032;2023-04-15T01:34:52;8.60;;;6.32;;
79122;SDS011;68526;44.600;26.032;2023-04-15T01:35:08;8.98;;;6.25;;
79122;SDS011;68526;44.600;26.032;2023-04-15T01:35:24;9.50;;;6.45;;
79122;SDS011;68526;44.600;26.032;2023-04-15T01:35:41;9.50;;;6.53;;
79122;SDS011;68526;44.600;26.032;2023-04-15T01:35:58;8.27;;;6.10;;
79122;SDS011;68526;44.600;26.032;2023-04-15T01:36:15;8.43;;;6.35;;
79122;SDS011;68526;44.600;26.032;2023-04-15T01:36:31;7.75;;;6.47;;
79122;SDS011;68526;44.600;26.032;2023-04-15T01:36:48;7.75;;;6.43;;
79122;SDS011;68526;44.600;26.032;2023-04-15T01:37:04;8.30;;;6.65;;
79122;SDS011;68526;44.600;26.032;2023-04-15T01:37:20;7.90;;;6.63;;